Beach, ND

6:29 AM MDT on October 24, 2017 (GMT -0600)
Beach

Weather History for K20U - March, 2013

Change the Weather History Date:

Wednesday, March 6, 2013

  Actual Average (KGDV) Record (KGDV)
Temperature  
Mean Temperature 16 °F -  
Max Temperature 24 °F 28 °F 71 °F (2016)
Min Temperature 8 °F 11 °F -4 °F (2002)
Degree Days  
Heating Degree Days 49    
Moisture  
Dew Point 15 °F    
Average Humidity 88    
Maximum Humidity 93    
Minimum Humidity 80    
Precipitation  
Precipitation 0.00 in - - ()
Sea Level Pressure  
Sea Level Pressure 30.01 in    
Wind  
Wind Speed 17 mph (SE)    
Max Wind Speed 26 mph    
Max Gust Speed 34 mph    
Visibility 10 miles    
Events Snow    
Averages and records for this station are not official NWS values.
T = Trace of Precipitation, MM = Missing Value Source: NWS Daily Summary

Daily Weather History Graph

Daily Weather History Graph

Search for Another Location

Airport or City:

Trip Planner

Search our weather history database for the weather conditions in past years. The results will help you decide how hot, cold, wet, or windy it might be!

Date:

Astronomy

Mar. 06, 2013 Rise Set
Actual Time 6:25 AM MST 5:49 PM MST
Civil Twilight 5:55 AM MST 6:19 PM MST
Nautical Twilight 5:20 AM MST 6:54 PM MST
Astronomical Twilight 4:44 AM MST 7:30 PM MST
Moon 2:53 AM MST (3/6) 12:17 PM MST (3/6)
Length of Visible Light 12h 24m
Length of Day
11h 23m
Waning Crescent, 29% of the Moon is Illuminated
Mar 6
Waning Crescent
Mar 11
New
Mar 19
First Quarter
Mar 27
Full
Apr 2
Last Quarter

Hourly Weather History & Observations

Time (MST) Temp. Windchill Dew Point Humidity Pressure Visibility Wind Dir Wind Speed Gust Speed Precip Events Conditions
12:15 AM 10.4 °F -4.8 °F 8.6 °F 92% 30.19 in 10.0 mi SE 12.7 mph - N/A   Clear
12:35 AM 10.4 °F -4.8 °F 8.6 °F 92% 30.19 in 10.0 mi SE 12.7 mph - N/A   Clear
12:55 AM 10.4 °F -4.8 °F 8.6 °F 92% 30.18 in 10.0 mi SE 12.7 mph - N/A   Clear
1:15 AM 12.2 °F -3.1 °F 10.4 °F 92% 30.19 in 10.0 mi SE 13.8 mph - N/A   Clear
1:35 AM 12.2 °F -2.5 °F 10.4 °F 92% 30.19 in 10.0 mi SE 12.7 mph - N/A   Clear
1:55 AM 12.2 °F -2.5 °F 10.4 °F 92% 30.19 in 10.0 mi SE 12.7 mph 18.4 mph N/A   Clear
2:15 AM 12.2 °F -2.5 °F 10.4 °F 92% 30.18 in 10.0 mi SE 12.7 mph - N/A   Partly Cloudy
2:35 AM 10.4 °F -3.3 °F 8.6 °F 92% 30.18 in 10.0 mi SE 10.4 mph - N/A   Mostly Cloudy
2:55 AM 10.4 °F -4.1 °F 8.6 °F 92% 30.16 in 10.0 mi SE 11.5 mph - N/A   Partly Cloudy
3:15 AM 10.4 °F -5.4 °F 8.6 °F 92% 30.16 in 10.0 mi SE 13.8 mph - N/A   Clear
3:35 AM 10.4 °F -5.4 °F 8.6 °F 92% 30.16 in 10.0 mi SE 13.8 mph - N/A   Clear
3:55 AM 10.4 °F -5.4 °F 8.6 °F 92% 30.15 in 10.0 mi SE 13.8 mph - N/A   Clear
4:15 AM 10.4 °F -5.4 °F 6.8 °F 85% 30.15 in 10.0 mi ESE 13.8 mph 19.6 mph N/A   Partly Cloudy
4:35 AM 8.6 °F -8.3 °F 6.8 °F 92% 30.15 in 10.0 mi SE 15.0 mph - N/A   Partly Cloudy
4:55 AM 10.4 °F -4.8 °F 6.8 °F 85% 30.15 in 10.0 mi SE 12.7 mph - N/A   Clear
5:15 AM 10.4 °F -6.6 °F 6.8 °F 85% 30.15 in 10.0 mi SE 16.1 mph - N/A   Clear
5:35 AM 10.4 °F -5.4 °F 6.8 °F 85% 30.14 in 10.0 mi SE 13.8 mph - N/A   Clear
5:55 AM 10.4 °F -5.4 °F 8.6 °F 92% 30.14 in 10.0 mi SE 13.8 mph - N/A   Clear
6:15 AM 10.4 °F -6.0 °F 8.6 °F 92% 30.13 in 10.0 mi SE 15.0 mph 20.7 mph N/A   Clear
6:35 AM 10.4 °F -4.8 °F 8.6 °F 92% 30.12 in 10.0 mi SE 12.7 mph - N/A   Clear
6:55 AM 10.4 °F -6.6 °F 8.6 °F 92% 30.12 in 10.0 mi SE 16.1 mph 21.9 mph N/A   Clear
7:15 AM 12.2 °F -5.3 °F 8.6 °F 85% 30.12 in 10.0 mi SE 18.4 mph - N/A   Clear
7:35 AM 14.0 °F -3.0 °F 10.4 °F 86% 30.12 in 10.0 mi SE 18.4 mph 25.3 mph N/A   Clear
7:55 AM 14.0 °F -3.4 °F 10.4 °F 86% 30.11 in 10.0 mi SE 19.6 mph 24.2 mph N/A   Partly Cloudy
8:15 AM 14.0 °F -3.4 °F 10.4 °F 86% 30.10 in 10.0 mi SE 19.6 mph 24.2 mph N/A   Partly Cloudy
8:35 AM 14.0 °F -4.7 °F 12.2 °F 93% 30.10 in 10.0 mi SE 23.0 mph - N/A   Clear
8:55 AM 15.8 °F -3.1 °F 14.0 °F 93% 30.08 in 10.0 mi SE 25.3 mph 28.8 mph N/A   Clear
9:15 AM 15.8 °F -3.4 °F 14.0 °F 93% 30.07 in 10.0 mi SE 26.5 mph 34.5 mph N/A   Clear
9:35 AM 17.6 °F 0.5 °F 14.0 °F 86% 30.07 in 10.0 mi SE 21.9 mph 29.9 mph N/A   Clear
9:55 AM 17.6 °F -0.3 °F 15.8 °F 93% 30.07 in 10.0 mi SE 24.2 mph 33.4 mph N/A   Clear
10:15 AM 19.4 °F 2.1 °F 15.8 °F 86% 30.06 in 10.0 mi SE 24.2 mph 29.9 mph N/A   Clear
10:35 AM 19.4 °F 1.8 °F 15.8 °F 86% 30.05 in 10.0 mi SE 25.3 mph 31.1 mph N/A   Clear
10:55 AM 21.2 °F 4.5 °F 15.8 °F 80% 30.05 in 10.0 mi SE 24.2 mph 31.1 mph N/A   Clear
11:15 AM 21.2 °F 4.2 °F 17.6 °F 86% 30.04 in 10.0 mi SE 25.3 mph 29.9 mph N/A   Scattered Clouds
11:35 AM 21.2 °F 4.9 °F 17.6 °F 86% 30.03 in 10.0 mi SSE 23.0 mph 27.6 mph N/A   Mostly Cloudy
11:55 AM 23.0 °F 7.6 °F 17.6 °F 80% 30.02 in 10.0 mi SE 21.9 mph 25.3 mph N/A   Overcast
12:15 PM 23.0 °F 8.3 °F 17.6 °F 80% 30.01 in 10.0 mi SE 19.6 mph 26.5 mph N/A   Overcast
12:35 PM 23.0 °F 8.0 °F 17.6 °F 80% 30.01 in 10.0 mi SE 20.7 mph 25.3 mph N/A   Overcast
12:55 PM 23.0 °F 7.2 °F 19.4 °F 86% 29.99 in 10.0 mi SE 23.0 mph 28.8 mph N/A   Overcast
1:15 PM 23.0 °F 6.9 °F 17.6 °F 80% 29.97 in 10.0 mi SE 24.2 mph 28.8 mph N/A   Mostly Cloudy
1:35 PM 23.0 °F 8.0 °F 19.4 °F 86% 29.96 in 10.0 mi SE 20.7 mph 29.9 mph N/A   Scattered Clouds
1:55 PM 23.0 °F 8.0 °F 19.4 °F 86% 29.94 in 10.0 mi SE 20.7 mph 29.9 mph N/A   Mostly Cloudy
2:15 PM 24.8 °F 9.3 °F 19.4 °F 80% 29.94 in 10.0 mi SE 24.2 mph 32.2 mph N/A   Overcast
2:35 PM 24.8 °F 10.3 °F 19.4 °F 80% 29.94 in 10.0 mi SE 20.7 mph 29.9 mph N/A   Overcast
2:55 PM 24.8 °F 10.3 °F 21.2 °F 86% 29.93 in 10.0 mi SSE 20.7 mph 29.9 mph N/A   Overcast
3:15 PM 24.8 °F 9.6 °F 21.2 °F 86% 29.92 in 10.0 mi SE 23.0 mph 28.8 mph N/A   Overcast
3:35 PM 23.0 °F 6.9 °F 19.4 °F 86% 29.93 in 10.0 mi SE 24.2 mph 31.1 mph N/A   Overcast
3:55 PM 23.0 °F 6.6 °F 19.4 °F 86% 29.92 in 10.0 mi SE 25.3 mph 32.2 mph N/A   Overcast
4:15 PM 23.0 °F 6.3 °F 19.4 °F 86% 29.92 in 10.0 mi SE 26.5 mph 31.1 mph N/A   Overcast
4:35 PM 23.0 °F 6.9 °F 19.4 °F 86% 29.90 in 10.0 mi SE 24.2 mph 29.9 mph N/A   Overcast
4:55 PM 23.0 °F 8.3 °F 19.4 °F 86% 29.90 in 10.0 mi SE 19.6 mph 26.5 mph N/A   Overcast
5:15 PM 23.0 °F 8.7 °F 19.4 °F 86% 29.89 in 10.0 mi ESE 18.4 mph 23.0 mph N/A   Mostly Cloudy
5:35 PM 23.0 °F 8.3 °F 19.4 °F 86% 29.89 in 10.0 mi ESE 19.6 mph 25.3 mph N/A   Partly Cloudy
5:55 PM 23.0 °F 8.3 °F 19.4 °F 86% 29.89 in 10.0 mi ESE 19.6 mph 27.6 mph N/A   Partly Cloudy
6:15 PM 23.0 °F 8.7 °F 19.4 °F 86% 29.88 in 10.0 mi ESE 18.4 mph 25.3 mph N/A   Partly Cloudy
6:35 PM 23.0 °F 7.6 °F 19.4 °F 86% 29.88 in 10.0 mi ESE 21.9 mph 26.5 mph N/A   Scattered Clouds
6:55 PM 23.0 °F 7.2 °F 19.4 °F 86% 29.86 in 10.0 mi ESE 23.0 mph 29.9 mph N/A   Mostly Cloudy
7:35 PM 21.2 °F 5.2 °F 17.6 °F 86% 29.87 in 10.0 mi SE 21.9 mph 31.1 mph N/A   Overcast
7:55 PM 21.2 °F 6.4 °F 17.6 °F 86% 29.86 in 10.0 mi SE 18.4 mph 24.2 mph N/A   Mostly Cloudy
8:15 PM 21.2 °F 5.6 °F 17.6 °F 86% 29.86 in 10.0 mi SE 20.7 mph 27.6 mph N/A   Mostly Cloudy
8:35 PM 21.2 °F 4.9 °F 17.6 °F 86% 29.85 in 10.0 mi SE 23.0 mph 29.9 mph N/A   Overcast
8:55 PM 19.4 °F 3.6 °F 17.6 °F 93% 29.85 in 10.0 mi ESE 19.6 mph 29.9 mph N/A   Overcast
9:15 PM 19.4 °F 3.6 °F 17.6 °F 93% 29.85 in 10.0 mi SE 19.6 mph 25.3 mph N/A   Overcast
9:35 PM 19.4 °F 2.8 °F 17.6 °F 93% 29.85 in 10.0 mi SE 21.9 mph 26.5 mph N/A   Overcast
9:55 PM 19.4 °F 4.5 °F 17.6 °F 93% 29.85 in 10.0 mi SE 17.3 mph - N/A   Overcast
10:15 PM 19.4 °F 5.5 °F 17.6 °F 93% 29.85 in 10.0 mi ESE 15.0 mph - N/A   Overcast
10:35 PM 19.4 °F 5.0 °F 17.6 °F 93% 29.85 in 10.0 mi SE 16.1 mph 25.3 mph N/A Snow Light Snow
10:55 PM 19.4 °F 5.5 °F 17.6 °F 93% 29.85 in 10.0 mi ESE 15.0 mph 23.0 mph N/A   Overcast
11:15 PM 19.4 °F 3.6 °F 17.6 °F 93% 29.84 in 10.0 mi SE 19.6 mph - N/A   Overcast
11:35 PM 19.4 °F 3.6 °F 17.6 °F 93% 29.83 in 10.0 mi SE 19.6 mph 25.3 mph N/A   Overcast
11:55 PM 17.6 °F 0.5 °F 15.8 °F 93% 29.83 in 10.0 mi SE 21.9 mph 26.5 mph N/A   Overcast